createdAt,value
2018-09-17T04:00:59.605Z,8.40
2018-09-17T04:01:59.473Z,8.00
2018-09-17T04:03:52.147Z,8.10
2018-09-17T04:04:52.038Z,8.40
2018-09-17T04:06:44.731Z,9.00
2018-09-17T04:07:44.600Z,8.50
2018-09-17T04:09:37.277Z,7.80
2018-09-17T04:10:37.161Z,8.70
2018-09-17T04:12:29.851Z,8.80
2018-09-17T04:13:29.723Z,8.80
2018-09-17T04:15:22.398Z,10.80
2018-09-17T04:16:22.291Z,9.60
2018-09-17T04:18:14.975Z,9.40
2018-09-17T04:19:14.853Z,9.10
2018-09-17T04:21:07.528Z,10.00
2018-09-17T04:22:07.421Z,8.60
2018-09-17T04:24:00.111Z,9.30
2018-09-17T04:24:59.987Z,9.20
2018-09-17T04:26:52.655Z,8.50
2018-09-17T04:27:52.543Z,8.80
2018-09-17T04:29:45.230Z,9.30
2018-09-17T04:30:45.108Z,11.20
2018-09-17T04:32:37.804Z,9.00
2018-09-17T04:33:37.676Z,9.50
2018-09-17T04:35:30.347Z,8.60
2018-09-17T04:36:30.242Z,9.90
2018-09-17T04:38:22.928Z,10.00
2018-09-17T04:39:22.811Z,9.20
2018-09-17T04:41:15.473Z,9.20
2018-09-17T04:42:15.361Z,10.00
2018-09-17T04:44:08.047Z,8.80
2018-09-17T04:45:07.925Z,9.90
2018-09-17T04:47:00.592Z,9.80
2018-09-17T04:48:00.486Z,9.20
2018-09-17T04:49:53.177Z,9.80
2018-09-17T04:50:53.056Z,9.30
2018-09-17T04:52:45.725Z,12.60
2018-09-17T04:53:45.614Z,9.80
2018-09-17T04:55:38.293Z,10.00
2018-09-17T04:56:38.170Z,10.10
2018-09-17T04:58:30.846Z,9.90
2018-09-17T04:59:30.730Z,10.40
2018-09-17T05:01:23.575Z,10.30
2018-09-17T05:02:23.293Z,9.50
2018-09-17T05:04:16.456Z,9.30
2018-09-17T05:05:16.351Z,9.60
2018-09-17T05:07:09.050Z,10.00
2018-09-17T05:08:08.914Z,10.30
2018-09-17T05:10:01.587Z,10.30
2018-09-17T05:11:01.473Z,10.60
2018-09-17T05:12:54.238Z,10.20
2018-09-17T05:13:54.043Z,10.10
2018-09-17T05:15:46.896Z,9.80
2018-09-17T05:16:46.605Z,9.90
2018-09-17T05:18:39.282Z,9.40
2018-09-17T05:19:39.181Z,10.20
2018-09-17T05:21:31.872Z,12.30
2018-09-17T05:22:31.748Z,11.30
2018-09-17T05:24:24.421Z,10.20
2018-09-17T05:25:24.308Z,10.60
2018-09-17T05:27:16.996Z,10.40
2018-09-17T05:28:16.873Z,11.40
2018-09-17T05:30:09.544Z,10.60
2018-09-17T05:31:09.436Z,12.80
2018-09-17T05:33:02.781Z,11.00
2018-09-17T05:34:01.996Z,10.20
2018-09-17T05:35:54.681Z,11.20
2018-09-17T05:36:54.564Z,11.40
2018-09-17T05:38:47.242Z,11.00
2018-09-17T05:39:47.122Z,10.10
2018-09-17T05:41:39.943Z,10.50
2018-09-17T05:42:39.682Z,10.70
2018-09-17T05:44:32.468Z,11.30
2018-09-17T05:45:32.246Z,11.40
2018-09-17T05:47:24.919Z,11.70
2018-09-17T05:48:24.807Z,11.60
2018-09-17T05:50:17.494Z,12.20
2018-09-17T05:51:17.374Z,13.20
2018-09-17T05:53:10.048Z,12.20
2018-09-17T05:54:09.929Z,12.50
2018-09-17T05:56:02.623Z,12.00
2018-09-17T05:57:02.501Z,12.10
2018-09-17T05:58:55.203Z,13.70
2018-09-17T05:59:55.064Z,14.40
2018-09-17T06:01:47.741Z,13.00
2018-09-17T06:02:47.633Z,13.40
2018-09-17T06:04:40.328Z,17.60
2018-09-17T06:05:40.245Z,14.20
2018-09-17T06:07:32.864Z,13.40
2018-09-17T06:08:32.762Z,12.60
2018-09-17T06:10:25.443Z,12.30
2018-09-17T06:11:25.319Z,12.50
2018-09-17T06:13:17.990Z,14.00
2018-09-17T06:14:17.878Z,11.60
2018-09-17T06:16:10.569Z,11.80
2018-09-17T06:17:10.446Z,11.60
2018-09-17T06:19:03.118Z,11.10
2018-09-17T06:20:03.011Z,12.30
2018-09-17T06:21:55.699Z,12.30
2018-09-17T06:22:55.572Z,12.40
2018-09-17T06:24:48.252Z,11.80
2018-09-17T06:25:48.146Z,12.40
2018-09-17T06:27:40.834Z,11.10
2018-09-17T06:28:40.708Z,14.20
2018-09-17T06:30:33.389Z,12.80
2018-09-17T06:31:33.276Z,12.00
2018-09-17T06:33:25.968Z,11.30
2018-09-17T06:34:25.874Z,11.70
2018-09-17T06:36:18.546Z,12.80
2018-09-17T06:37:18.399Z,15.10
2018-09-17T06:39:11.094Z,13.00
2018-09-17T06:40:10.968Z,12.00
2018-09-17T06:42:03.665Z,12.00
2018-09-17T06:43:03.537Z,12.80
2018-09-17T06:44:56.228Z,12.30
2018-09-17T06:45:56.098Z,13.00
2018-09-17T06:47:48.785Z,16.90
2018-09-17T06:48:48.669Z,14.00
2018-09-17T06:50:41.339Z,13.00
2018-09-17T06:51:41.230Z,12.70
2018-09-17T06:53:33.967Z,12.10
2018-09-17T06:54:33.808Z,12.50
2018-09-17T06:56:26.485Z,13.10
2018-09-17T06:57:26.376Z,14.10
2018-09-17T06:59:19.062Z,12.20
2018-09-17T07:00:18.940Z,14.90
2018-09-17T07:02:11.616Z,11.70
2018-09-17T07:03:11.506Z,14.50
2018-09-17T07:05:04.197Z,14.90
2018-09-17T07:06:04.076Z,12.40
2018-09-17T07:07:56.747Z,14.70
2018-09-17T07:08:56.639Z,14.40
2018-09-17T07:10:49.333Z,11.60
2018-09-17T07:11:49.207Z,14.70
2018-09-17T07:13:41.879Z,14.20
2018-09-17T07:14:41.769Z,12.80
2018-09-17T07:16:34.459Z,14.30
2018-09-17T07:17:34.339Z,13.70
2018-09-17T07:19:27.008Z,12.40
2018-09-17T07:20:26.901Z,12.10
2018-09-17T07:22:19.596Z,13.70
2018-09-17T07:23:19.475Z,12.20
2018-09-17T07:25:12.184Z,15.30
2018-09-17T07:26:12.048Z,15.30
2018-09-17T07:28:04.726Z,14.50
2018-09-17T07:29:04.622Z,12.80
2018-09-17T07:30:57.317Z,13.30
2018-09-17T07:31:57.188Z,12.00
2018-09-17T07:33:49.882Z,14.20
2018-09-17T07:34:49.772Z,13.60
2018-09-17T07:36:42.467Z,14.20
2018-09-17T07:37:42.346Z,11.10
2018-09-17T07:39:35.023Z,12.40
2018-09-17T07:40:34.926Z,12.20
2018-09-17T07:42:27.618Z,13.40
2018-09-17T07:43:27.483Z,12.20
2018-09-17T07:45:20.181Z,13.60
2018-09-17T07:46:20.078Z,12.50
2018-09-17T07:48:12.769Z,13.10
2018-09-17T07:49:12.645Z,11.80
2018-09-17T07:51:05.341Z,11.70
2018-09-17T07:52:05.239Z,10.70
2018-09-17T07:53:57.939Z,11.10
2018-09-17T07:54:57.820Z,10.80
2018-09-17T07:56:50.499Z,12.90
2018-09-17T07:57:50.393Z,11.50
2018-09-17T07:59:43.085Z,13.40
2018-09-17T08:00:42.963Z,11.50
2018-09-17T08:02:35.660Z,11.90
2018-09-17T08:03:35.542Z,12.10
2018-09-17T08:05:28.252Z,13.40
2018-09-17T08:06:28.126Z,13.50
2018-09-17T08:08:20.818Z,12.00
2018-09-17T08:09:20.784Z,13.20
2018-09-17T08:11:13.388Z,10.80
2018-09-17T08:12:13.278Z,10.90
2018-09-17T08:14:05.975Z,12.00
2018-09-17T08:15:05.854Z,12.80
2018-09-17T08:16:58.553Z,11.90
2018-09-17T08:17:58.433Z,12.10
2018-09-17T08:19:51.144Z,11.40
2018-09-17T08:20:51.013Z,12.20
2018-09-17T08:22:43.700Z,12.00
2018-09-17T08:23:43.593Z,10.80
2018-09-17T08:25:36.365Z,10.90
2018-09-17T08:26:36.172Z,11.10
2018-09-17T08:28:29.506Z,10.10
2018-09-17T08:29:29.252Z,11.00
2018-09-17T08:31:21.973Z,10.30
2018-09-17T08:32:21.832Z,10.40
2018-09-17T08:34:14.525Z,10.90
2018-09-17T08:35:14.409Z,10.30
2018-09-17T08:37:07.115Z,10.80
2018-09-17T08:38:07.012Z,10.00
2018-09-17T08:39:59.676Z,12.00
2018-09-17T08:40:59.565Z,10.60
2018-09-17T08:42:52.295Z,10.60
2018-09-17T08:43:52.189Z,11.20
2018-09-17T08:45:44.876Z,10.10
2018-09-17T08:46:44.755Z,9.60
2018-09-17T08:48:37.432Z,12.80
2018-09-17T08:49:37.336Z,10.60
2018-09-17T08:51:30.035Z,9.10
2018-09-17T08:52:29.907Z,9.00
2018-09-17T08:54:22.607Z,9.80
2018-09-17T08:55:22.491Z,9.30
2018-09-17T08:57:15.182Z,9.00
2018-09-17T08:58:15.066Z,10.80
2018-09-17T09:00:07.749Z,9.70
2018-09-17T09:01:07.645Z,10.70
2018-09-17T09:03:00.347Z,9.60
2018-09-17T09:04:00.275Z,10.40
2018-09-17T09:05:52.909Z,9.90
2018-09-17T09:06:52.809Z,10.70
2018-09-17T09:08:45.501Z,9.20
2018-09-17T09:09:45.383Z,9.30
2018-09-17T09:11:38.068Z,9.40
2018-09-17T09:12:37.969Z,11.90
2018-09-17T09:14:30.662Z,9.80
2018-09-17T09:15:30.546Z,10.30
2018-09-17T09:17:23.231Z,9.60
2018-09-17T09:18:23.127Z,8.10
2018-09-17T09:20:15.826Z,7.70
2018-09-17T09:21:15.715Z,8.90
2018-09-17T09:23:09.452Z,9.00
2018-09-17T09:24:09.287Z,8.90
2018-09-17T09:26:01.960Z,8.60
2018-09-17T09:27:01.874Z,7.30
2018-09-17T09:28:54.559Z,7.00
2018-09-17T09:29:54.441Z,8.30
2018-09-17T09:31:47.124Z,7.60
2018-09-17T09:32:47.024Z,8.70
2018-09-17T09:34:39.721Z,7.30
2018-09-17T09:35:39.604Z,6.50
2018-09-17T09:37:32.284Z,8.00
2018-09-17T09:38:32.183Z,8.10
2018-09-17T09:40:24.878Z,8.20
2018-09-17T09:41:24.759Z,9.50
2018-09-17T09:43:17.445Z,6.50
2018-09-17T09:44:17.342Z,8.20
2018-09-17T09:46:10.043Z,8.50
2018-09-17T09:47:09.929Z,8.60
2018-09-17T09:49:02.612Z,8.20
2018-09-17T09:50:02.509Z,6.80
2018-09-17T09:51:55.206Z,8.00
2018-09-17T09:52:55.085Z,6.80
2018-09-17T09:54:47.778Z,9.80
2018-09-17T09:55:47.667Z,7.20
2018-09-17T09:57:40.370Z,7.60
2018-09-17T09:58:40.255Z,8.80
2018-09-17T10:00:32.939Z,7.60
2018-09-17T10:01:32.841Z,7.80
2018-09-17T10:03:25.539Z,6.20
2018-09-17T10:04:25.423Z,7.60
2018-09-17T10:06:18.102Z,6.90
2018-09-17T10:07:18.001Z,6.20
2018-09-17T10:09:10.700Z,8.70
2018-09-17T10:10:10.579Z,6.20
2018-09-17T10:12:03.266Z,5.20
2018-09-17T10:13:03.163Z,8.60
2018-09-17T10:14:55.863Z,9.20
2018-09-17T10:15:55.742Z,5.50
2018-09-17T10:17:48.444Z,7.10
2018-09-17T10:18:48.326Z,6.90
2018-09-17T10:20:41.002Z,6.30
2018-09-17T10:21:40.905Z,7.10
2018-09-17T10:23:33.604Z,6.50
2018-09-17T10:24:33.480Z,4.80
2018-09-17T10:26:26.170Z,6.50
2018-09-17T10:27:26.063Z,5.60
2018-09-17T10:29:19.274Z,4.70
2018-09-17T10:30:19.150Z,6.20
2018-09-17T10:32:11.840Z,5.90
2018-09-17T10:33:11.729Z,5.50
2018-09-17T10:35:04.423Z,5.00
2018-09-17T10:36:04.309Z,4.80
2018-09-17T10:37:56.992Z,4.10
2018-09-17T10:38:56.892Z,4.90
2018-09-17T10:40:49.591Z,4.80
2018-09-17T10:41:49.469Z,5.70
2018-09-17T10:43:42.157Z,5.80
2018-09-17T10:44:42.061Z,4.20
2018-09-17T10:46:34.767Z,3.20
2018-09-17T10:47:34.641Z,4.30
2018-09-17T10:49:27.979Z,4.30
2018-09-17T10:50:27.227Z,5.00
2018-09-17T10:52:19.938Z,3.60
2018-09-17T10:53:19.819Z,4.30
2018-09-17T10:55:12.525Z,6.60
2018-09-17T10:56:12.396Z,4.80
2018-09-17T10:58:05.091Z,5.70
2018-09-17T10:59:04.989Z,4.50
2018-09-17T11:00:57.696Z,6.80
2018-09-17T11:01:57.578Z,4.20
2018-09-17T11:03:50.260Z,4.60
2018-09-17T11:04:50.255Z,5.50
2018-09-17T11:06:42.872Z,3.40
2018-09-17T11:07:42.751Z,4.30
2018-09-17T11:09:35.434Z,3.40
2018-09-17T11:10:35.336Z,5.50
2018-09-17T11:12:28.039Z,4.40
2018-09-17T11:13:27.916Z,5.30
2018-09-17T11:15:20.601Z,4.20
2018-09-17T11:16:20.493Z,3.90
2018-09-17T11:18:13.225Z,4.40
2018-09-17T11:19:13.111Z,4.30
2018-09-17T11:21:05.819Z,4.80
2018-09-17T11:22:05.700Z,6.30
2018-09-17T11:23:59.044Z,3.90
2018-09-17T11:24:58.279Z,5.20
2018-09-17T11:26:50.989Z,6.40
2018-09-17T11:27:50.867Z,4.90
2018-09-17T11:29:43.562Z,3.70
2018-09-17T11:30:43.444Z,3.50
2018-09-17T11:32:36.145Z,4.10
2018-09-17T11:33:36.034Z,3.70
2018-09-17T11:35:28.721Z,3.80
2018-09-17T11:36:28.624Z,4.30
2018-09-17T11:38:21.326Z,4.50
2018-09-17T11:39:21.202Z,4.70
2018-09-17T11:41:14.118Z,4.00
2018-09-17T11:42:13.790Z,5.10
2018-09-17T11:44:06.494Z,4.90
2018-09-17T11:45:06.370Z,4.70
2018-09-17T11:46:59.059Z,6.00
2018-09-17T11:47:58.958Z,3.90
2018-09-17T11:49:51.657Z,5.00
2018-09-17T11:50:51.548Z,4.80
2018-09-17T11:52:44.229Z,4.70
2018-09-17T11:53:44.136Z,5.20
2018-09-17T11:55:36.827Z,3.60
2018-09-17T11:56:36.715Z,6.90
2018-09-17T11:58:29.400Z,6.20
2018-09-17T11:59:29.297Z,4.20
2018-09-17T12:01:22.009Z,7.00
2018-09-17T12:02:21.899Z,5.10
2018-09-17T12:04:14.582Z,4.00
2018-09-17T12:05:14.474Z,4.60
2018-09-17T12:07:07.184Z,5.40
2018-09-17T12:08:07.076Z,3.40
2018-09-17T12:09:59.768Z,3.50
2018-09-17T12:10:59.646Z,4.00
2018-09-17T12:12:52.327Z,5.10
2018-09-17T12:13:52.240Z,4.30
2018-09-17T12:15:44.945Z,8.10
2018-09-17T12:16:44.832Z,4.20
2018-09-17T12:18:37.515Z,4.10
2018-09-17T12:19:37.418Z,6.30
2018-09-17T12:21:30.114Z,4.90
2018-09-17T12:22:30.002Z,4.50
2018-09-17T12:24:22.699Z,2.90
2018-09-17T12:25:22.586Z,3.80
2018-09-17T12:27:15.293Z,5.70
2018-09-17T12:28:15.174Z,6.90
2018-09-17T12:30:07.862Z,4.60
2018-09-17T12:31:07.761Z,4.40
2018-09-17T12:33:00.469Z,5.70
2018-09-17T12:34:00.434Z,5.80
2018-09-17T12:35:53.027Z,3.70
2018-09-17T12:36:52.928Z,5.90
2018-09-17T12:38:45.627Z,5.20
2018-09-17T12:39:45.509Z,5.80
2018-09-17T12:41:38.213Z,5.10
2018-09-17T12:42:38.097Z,4.30
2018-09-17T12:44:30.790Z,5.20
2018-09-17T12:45:30.688Z,4.60
2018-09-17T12:47:23.385Z,5.50
2018-09-17T12:48:23.271Z,5.20
2018-09-17T12:50:15.959Z,5.10
2018-09-17T12:51:15.855Z,5.20
2018-09-17T12:53:08.565Z,5.60
2018-09-17T12:54:08.448Z,5.80
2018-09-17T12:56:01.131Z,9.60
2018-09-17T12:57:01.031Z,5.70
2018-09-17T12:58:53.730Z,6.90
2018-09-17T12:59:53.621Z,7.90
2018-09-17T13:01:46.304Z,6.00
2018-09-17T13:02:46.203Z,6.00
2018-09-17T13:04:38.906Z,8.20
2018-09-17T13:05:38.788Z,5.40
2018-09-17T13:07:31.482Z,6.90
2018-09-17T13:08:31.386Z,5.20
2018-09-17T13:10:24.085Z,7.30
2018-09-17T13:11:23.974Z,6.90
2018-09-17T13:13:16.653Z,8.80
2018-09-17T13:14:16.558Z,4.70
2018-09-17T13:16:09.253Z,6.70
2018-09-17T13:17:09.140Z,4.30
2018-09-17T13:19:01.821Z,5.50
2018-09-17T13:20:01.727Z,5.40
2018-09-17T13:21:54.431Z,7.30
2018-09-17T13:22:54.318Z,4.90
2018-09-17T13:24:47.052Z,4.40
2018-09-17T13:25:46.901Z,5.10
2018-09-17T13:27:39.584Z,4.70
2018-09-17T13:28:39.485Z,4.20
2018-09-17T13:30:32.191Z,5.50
2018-09-17T13:31:32.079Z,6.10
2018-09-17T13:33:24.766Z,6.00
2018-09-17T13:34:24.679Z,6.00
2018-09-17T13:36:17.370Z,6.80
2018-09-17T13:37:17.245Z,6.30
2018-09-17T13:39:09.937Z,4.50
2018-09-17T13:40:09.842Z,5.90
2018-09-17T13:42:02.543Z,8.50
2018-09-17T13:43:02.457Z,7.70
2018-09-17T13:44:55.130Z,4.20
2018-09-17T13:45:55.016Z,5.90
2018-09-17T13:47:47.723Z,7.00
2018-09-17T13:48:47.609Z,4.70
2018-09-17T13:50:40.293Z,4.70
2018-09-17T13:51:40.211Z,6.30
2018-09-17T13:53:33.023Z,4.80
2018-09-17T13:54:32.800Z,4.80
2018-09-17T13:56:25.490Z,6.00
2018-09-17T13:57:25.377Z,4.60
2018-09-17T13:59:18.056Z,6.00
2018-09-17T14:00:17.961Z,7.00
2018-09-17T14:02:10.678Z,6.50
2018-09-17T14:03:10.544Z,6.00
2018-09-17T14:05:03.228Z,5.50
2018-09-17T14:06:03.130Z,4.00
2018-09-17T14:07:55.843Z,5.20
2018-09-17T14:08:55.729Z,4.80
2018-09-17T14:10:48.406Z,4.80
2018-09-17T14:11:48.314Z,4.90
2018-09-17T14:13:41.012Z,5.10
2018-09-17T14:14:40.897Z,4.20
2018-09-17T14:16:33.588Z,4.30
2018-09-17T14:17:33.502Z,5.70
2018-09-17T14:19:26.188Z,7.30
2018-09-17T14:20:26.069Z,5.00
2018-09-17T14:22:18.786Z,5.50
2018-09-17T14:23:18.679Z,5.30
2018-09-17T14:25:11.390Z,6.80
2018-09-17T14:26:11.360Z,4.60
2018-09-17T14:28:03.956Z,5.70
2018-09-17T14:29:03.880Z,3.70
2018-09-17T14:30:56.559Z,6.30
2018-09-17T14:31:56.449Z,4.80
2018-09-17T14:33:49.155Z,5.70
2018-09-17T14:34:49.034Z,4.90
2018-09-17T14:36:41.727Z,4.90
2018-09-17T14:37:41.631Z,5.30
2018-09-17T14:39:34.333Z,6.50
2018-09-17T14:40:34.217Z,4.10
2018-09-17T14:42:26.907Z,3.50
2018-09-17T14:43:26.876Z,4.30
2018-09-17T14:45:19.531Z,5.50
2018-09-17T14:46:19.431Z,5.30
2018-09-17T14:48:12.087Z,3.50
2018-09-17T14:49:12.037Z,3.60
2018-09-17T14:51:04.697Z,5.10
2018-09-17T14:52:04.642Z,3.80
2018-09-17T14:53:57.298Z,3.90
2018-09-17T14:54:57.175Z,4.10
2018-09-17T14:56:49.888Z,6.40
2018-09-17T14:57:49.761Z,3.40
2018-09-17T14:59:42.473Z,3.50
2018-09-17T15:00:42.351Z,4.10
2018-09-17T15:02:35.048Z,4.50
2018-09-17T15:03:34.956Z,3.30
2018-09-17T15:05:27.703Z,4.30
2018-09-17T15:06:27.547Z,4.10
2018-09-17T15:08:20.274Z,3.40
2018-09-17T15:09:20.169Z,5.70
2018-09-17T15:11:12.887Z,4.90
2018-09-17T15:12:12.775Z,3.90
2018-09-17T15:14:05.511Z,3.90
2018-09-17T15:15:05.380Z,3.50
2018-09-17T15:16:58.069Z,3.70
2018-09-17T15:17:57.954Z,3.40
2018-09-17T15:19:50.650Z,4.10
2018-09-17T15:20:50.550Z,3.10
2018-09-17T15:22:43.245Z,3.80
2018-09-17T15:23:43.142Z,3.90
2018-09-17T15:25:35.838Z,4.50
2018-09-17T15:26:35.749Z,3.20
2018-09-17T15:28:28.556Z,4.80
2018-09-17T15:29:28.319Z,4.00
2018-09-17T15:31:21.171Z,4.30
2018-09-17T15:32:21.036Z,4.40
2018-09-17T15:34:13.610Z,3.10
2018-09-17T15:35:13.498Z,3.80
2018-09-17T15:37:06.204Z,4.60
2018-09-17T15:38:06.125Z,5.40
2018-09-17T15:39:58.787Z,4.00
2018-09-17T15:40:58.755Z,4.00
2018-09-17T15:42:51.371Z,3.50
2018-09-17T15:43:51.257Z,5.20
2018-09-17T15:45:43.942Z,4.60
2018-09-17T15:46:43.893Z,5.40
2018-09-17T15:48:36.546Z,4.60
2018-09-17T15:49:36.431Z,2.80
2018-09-17T15:51:29.121Z,3.40
2018-09-17T15:52:29.023Z,4.00
2018-09-17T15:54:21.729Z,3.40
2018-09-17T15:55:21.615Z,3.50
2018-09-17T15:57:14.320Z,3.20
2018-09-17T15:58:14.214Z,5.40
2018-09-17T16:00:06.890Z,4.10
2018-09-17T16:01:06.786Z,4.00
2018-09-17T16:02:59.624Z,4.00
2018-09-17T16:03:59.373Z,5.00
2018-09-17T16:05:52.059Z,5.10
2018-09-17T16:06:51.966Z,3.80
2018-09-17T16:08:44.759Z,3.20
2018-09-17T16:09:44.542Z,4.20
2018-09-17T16:11:37.227Z,3.90
2018-09-17T16:12:37.127Z,3.90
2018-09-17T16:14:29.827Z,4.20
2018-09-17T16:15:29.723Z,3.90
2018-09-17T16:17:22.406Z,3.80
2018-09-17T16:18:22.302Z,4.00
2018-09-17T16:20:15.008Z,3.70
2018-09-17T16:21:14.891Z,3.90
2018-09-17T16:23:07.589Z,3.80
2018-09-17T16:24:07.464Z,5.10
2018-09-17T16:26:00.156Z,3.70
2018-09-17T16:27:00.055Z,3.70
2018-09-17T16:28:52.756Z,3.10
2018-09-17T16:29:52.642Z,4.20
2018-09-17T16:31:45.337Z,4.30
2018-09-17T16:32:45.230Z,3.90
2018-09-17T16:34:37.991Z,3.10
2018-09-17T16:35:37.831Z,4.90
2018-09-17T16:37:30.526Z,4.90
2018-09-17T16:38:30.426Z,4.60
2018-09-17T16:40:23.127Z,4.60
2018-09-17T16:41:23.041Z,4.20
2018-09-17T16:43:15.696Z,3.70
2018-09-17T16:44:15.591Z,3.60
2018-09-17T16:46:08.295Z,6.40
2018-09-17T16:47:08.243Z,4.50
2018-09-17T16:49:00.867Z,4.80
2018-09-17T16:50:00.771Z,4.50
2018-09-17T16:51:53.466Z,5.10
2018-09-17T16:52:53.403Z,6.80
2018-09-17T16:54:46.055Z,4.70
2018-09-17T16:55:45.930Z,4.10
2018-09-17T16:57:38.620Z,4.20
2018-09-17T16:58:38.515Z,4.00
2018-09-17T17:00:31.220Z,3.40
2018-09-17T17:01:31.108Z,4.30
2018-09-17T17:03:23.814Z,6.80
2018-09-17T17:04:23.693Z,4.40
2018-09-17T17:06:16.395Z,4.60
2018-09-17T17:07:16.280Z,6.00
2018-09-17T17:09:08.961Z,4.00
2018-09-17T17:10:08.877Z,4.30
2018-09-17T17:12:01.610Z,4.90
2018-09-17T17:13:01.442Z,4.40
2018-09-17T17:14:54.151Z,3.10
2018-09-17T17:15:54.103Z,4.70
2018-09-17T17:17:46.749Z,3.60
2018-09-17T17:18:46.700Z,6.40
2018-09-17T17:20:39.333Z,2.90
2018-09-17T17:21:39.219Z,4.10
2018-09-17T17:23:31.925Z,6.90
2018-09-17T17:24:31.799Z,5.10
2018-09-17T17:26:24.506Z,4.70
2018-09-17T17:27:24.392Z,4.20
2018-09-17T17:29:17.115Z,3.70
2018-09-17T17:30:16.973Z,3.50
2018-09-17T17:32:09.682Z,3.90
2018-09-17T17:33:09.609Z,4.80
2018-09-17T17:35:02.284Z,8.40
2018-09-17T17:36:02.163Z,7.30
2018-09-17T17:37:55.348Z,4.10
2018-09-17T17:38:55.240Z,6.90
2018-09-17T17:40:48.097Z,5.70
2018-09-17T17:41:47.824Z,7.00
2018-09-17T17:43:40.545Z,5.10
2018-09-17T17:44:40.406Z,4.70
2018-09-17T17:46:33.181Z,5.40
2018-09-17T17:47:32.982Z,5.70
2018-09-17T17:49:25.721Z,8.70
2018-09-17T17:50:25.562Z,6.30
2018-09-17T17:52:18.341Z,10.40
2018-09-17T17:53:18.211Z,5.90
2018-09-17T17:55:10.856Z,4.30
2018-09-17T17:56:10.732Z,6.60
2018-09-17T17:58:03.622Z,7.30
2018-09-17T17:59:03.319Z,8.90
2018-09-17T18:00:56.111Z,4.40
2018-09-17T18:01:55.911Z,7.00
2018-09-17T18:03:48.725Z,5.00
2018-09-17T18:04:48.502Z,7.00
2018-09-17T18:06:41.237Z,5.40
2018-09-17T18:07:41.057Z,4.20
2018-09-17T18:09:34.372Z,5.00
2018-09-17T18:10:33.631Z,5.30
2018-09-17T18:12:26.324Z,6.40
2018-09-17T18:13:26.200Z,6.30
2018-09-17T18:15:18.982Z,7.50
2018-09-17T18:16:18.800Z,6.90
2018-09-17T18:18:11.499Z,6.70
2018-09-17T18:19:11.493Z,8.30
2018-09-17T18:21:04.105Z,6.80
2018-09-17T18:22:03.952Z,5.20
2018-09-17T18:23:56.655Z,6.00
2018-09-17T18:24:56.533Z,5.50
2018-09-17T18:26:49.284Z,5.40
2018-09-17T18:27:49.106Z,7.20
2018-09-17T18:29:41.814Z,9.00
2018-09-17T18:30:42.095Z,8.40
2018-09-17T18:32:34.377Z,7.20
2018-09-17T18:33:34.274Z,6.60
2018-09-17T18:35:26.968Z,8.40
2018-09-17T18:36:26.889Z,5.80
2018-09-17T18:38:19.526Z,5.80
2018-09-17T18:39:19.439Z,4.60
2018-09-17T18:41:12.129Z,5.20
2018-09-17T18:42:11.997Z,6.10
2018-09-17T18:44:04.677Z,4.80
2018-09-17T18:45:04.591Z,4.40
2018-09-17T18:46:57.273Z,5.40
2018-09-17T18:47:57.218Z,6.40
2018-09-17T18:49:49.836Z,6.20
2018-09-17T18:50:49.759Z,6.70
2018-09-17T18:52:42.425Z,7.30
2018-09-17T18:53:42.332Z,4.30
2018-09-17T18:55:34.998Z,7.40
2018-09-17T18:56:34.902Z,8.70
2018-09-17T18:58:27.565Z,6.50
2018-09-17T18:59:27.451Z,5.80
2018-09-17T19:01:20.179Z,4.50
2018-09-17T19:02:20.060Z,5.20
2018-09-17T19:04:13.408Z,6.80
2018-09-17T19:05:12.713Z,7.00
2018-09-17T19:07:05.415Z,7.10
2018-09-17T19:08:05.303Z,7.20
2018-09-17T19:09:58.015Z,5.50
2018-09-17T19:10:57.879Z,7.10
2018-09-17T19:12:50.567Z,7.30
2018-09-17T19:13:50.452Z,7.90
2018-09-17T19:15:43.121Z,4.90
2018-09-17T19:16:44.142Z,5.90
2018-09-17T19:18:35.737Z,5.60
2018-09-17T19:19:35.697Z,6.20
2018-09-17T19:21:28.384Z,4.80
2018-09-17T19:22:28.458Z,5.70
2018-09-17T19:24:21.035Z,6.40
2018-09-17T19:25:20.762Z,6.70
2018-09-17T19:27:13.448Z,4.50
2018-09-17T19:28:13.385Z,6.50
2018-09-17T19:30:06.118Z,6.30
2018-09-17T19:31:05.922Z,7.60
2018-09-17T19:32:58.763Z,5.50
2018-09-17T19:33:58.508Z,5.30
2018-09-17T19:35:51.230Z,7.50
2018-09-17T19:36:51.071Z,5.60
2018-09-17T19:38:43.745Z,7.40
2018-09-17T19:39:43.688Z,5.30
2018-09-17T19:41:36.346Z,4.20
2018-09-17T19:42:36.430Z,5.80
2018-09-17T19:44:28.907Z,5.50
2018-09-17T19:45:28.803Z,8.10
2018-09-17T19:47:21.508Z,5.80
2018-09-17T19:48:21.460Z,5.40
2018-09-17T19:50:14.135Z,11.90
2018-09-17T19:51:13.973Z,4.90
2018-09-17T19:53:06.681Z,7.50
2018-09-17T19:54:06.542Z,6.30
2018-09-17T19:55:59.264Z,7.50
2018-09-17T19:56:59.115Z,4.90
2018-09-17T19:58:51.803Z,6.30
2018-09-17T19:59:51.686Z,8.20
2018-09-17T20:01:44.383Z,5.80
2018-09-17T20:02:44.258Z,4.90
2018-09-17T20:04:36.975Z,6.00
2018-09-17T20:05:36.833Z,6.60
2018-09-17T20:07:29.528Z,6.00
2018-09-17T20:08:29.411Z,6.30
2018-09-17T20:10:22.123Z,6.00
2018-09-17T20:11:21.976Z,6.30
2018-09-17T20:13:14.669Z,6.40
2018-09-17T20:14:14.549Z,7.00
2018-09-17T20:16:07.214Z,5.50
2018-09-17T20:17:07.114Z,6.20
2018-09-17T20:18:59.804Z,5.30
2018-09-17T20:19:59.684Z,4.80
2018-09-17T20:21:52.363Z,7.10
2018-09-17T20:22:52.263Z,6.30
2018-09-17T20:24:44.953Z,6.10
2018-09-17T20:25:44.835Z,6.20
2018-09-17T20:27:37.507Z,5.30
2018-09-17T20:28:37.399Z,5.70
2018-09-17T20:30:30.164Z,6.80
2018-09-17T20:31:30.050Z,6.90
2018-09-17T20:33:22.709Z,6.50
2018-09-17T20:34:22.604Z,4.90
2018-09-17T20:36:15.299Z,7.50
2018-09-17T20:37:15.177Z,6.40
2018-09-17T20:39:07.875Z,6.40
2018-09-17T20:40:07.740Z,7.20
2018-09-17T20:42:00.430Z,9.20
2018-09-17T20:43:00.333Z,6.80
2018-09-17T20:44:53.012Z,4.40
2018-09-17T20:45:52.892Z,5.20
2018-09-17T20:47:45.568Z,5.30
2018-09-17T20:48:45.536Z,5.90
2018-09-17T20:50:38.155Z,6.50
2018-09-17T20:51:38.033Z,7.20
2018-09-17T20:53:30.721Z,6.30
2018-09-17T20:54:30.607Z,6.70
2018-09-17T20:56:23.305Z,6.80
2018-09-17T20:57:23.184Z,6.20
2018-09-17T20:59:15.863Z,7.30
2018-09-17T21:00:15.755Z,5.50
2018-09-17T21:02:08.453Z,5.70
2018-09-17T21:03:08.331Z,5.10
2018-09-17T21:05:01.002Z,6.60
2018-09-17T21:06:00.898Z,6.60
2018-09-17T21:07:54.090Z,7.20
2018-09-17T21:08:53.969Z,6.90
2018-09-17T21:10:46.642Z,8.00
2018-09-17T21:11:46.532Z,6.30
2018-09-17T21:13:39.224Z,6.80
2018-09-17T21:14:39.111Z,8.10
2018-09-17T21:16:31.785Z,7.20
2018-09-17T21:17:31.675Z,7.60
2018-09-17T21:19:24.395Z,8.40
2018-09-17T21:20:24.250Z,8.50
2018-09-17T21:22:17.025Z,7.70
2018-09-17T21:23:16.824Z,7.60
2018-09-17T21:25:09.562Z,8.00
2018-09-17T21:26:09.389Z,7.70
2018-09-17T21:28:02.165Z,8.80
2018-09-17T21:29:01.958Z,7.20
2018-09-17T21:30:54.676Z,6.90
2018-09-17T21:31:54.538Z,6.60
2018-09-17T21:33:47.232Z,12.00
2018-09-17T21:34:47.115Z,7.80
2018-09-17T21:36:39.840Z,7.10
2018-09-17T21:37:39.684Z,8.70
2018-09-17T21:39:32.353Z,8.30
2018-09-17T21:40:32.249Z,8.30
2018-09-17T21:42:24.936Z,6.70
2018-09-17T21:43:24.820Z,7.50
2018-09-17T21:45:17.493Z,8.60
2018-09-17T21:46:17.375Z,8.10
2018-09-17T21:48:10.047Z,7.60
2018-09-17T21:49:09.942Z,7.10
2018-09-17T21:51:02.636Z,8.50
2018-09-17T21:52:02.511Z,8.80
2018-09-17T21:53:55.195Z,8.20
2018-09-17T21:54:55.092Z,8.10
2018-09-17T21:56:47.771Z,7.10
2018-09-17T21:57:47.652Z,7.70
2018-09-17T21:59:40.330Z,8.10
